sensor_id;sensor_type;location;lat;lon;timestamp;pressure;altitude;pressure_sealevel;temperature;humidity
23363;BME280;11853;48.080;11.960;2024-01-15T00:00:42;93435.19;;;2.06;84.56
23363;BME280;11853;48.080;11.960;2024-01-15T00:03:08;93429.03;;;2.07;84.19
23363;BME280;11853;48.080;11.960;2024-01-15T00:05:35;93428.88;;;1.98;85.17
23363;BME280;11853;48.080;11.960;2024-01-15T00:08:00;93436.44;;;2.01;85.02
23363;BME280;11853;48.080;11.960;2024-01-15T00:10:26;93424.59;;;1.97;85.68
23363;BME280;11853;48.080;11.960;2024-01-15T00:12:51;93430.25;;;1.93;86.30
23363;BME280;11853;48.080;11.960;2024-01-15T00:15:17;93428.59;;;1.92;86.83
23363;BME280;11853;48.080;11.960;2024-01-15T00:17:43;93420.75;;;1.92;86.64
23363;BME280;11853;48.080;11.960;2024-01-15T00:20:08;93418.81;;;1.94;86.83
23363;BME280;11853;48.080;11.960;2024-01-15T00:22:34;93428.88;;;1.98;87.58
23363;BME280;11853;48.080;11.960;2024-01-15T00:25:01;93425.13;;;1.91;87.20
23363;BME280;11853;48.080;11.960;2024-01-15T00:27:27;93422.41;;;1.93;86.72
23363;BME280;11853;48.080;11.960;2024-01-15T00:29:53;93421.84;;;1.89;87.60
23363;BME280;11853;48.080;11.960;2024-01-15T00:32:20;93424.75;;;1.86;87.49
23363;BME280;11853;48.080;11.960;2024-01-15T00:34:46;93433.25;;;1.88;87.98
23363;BME280;11853;48.080;11.960;2024-01-15T00:37:12;93432.44;;;1.88;88.18
23363;BME280;11853;48.080;11.960;2024-01-15T00:39:38;93432.44;;;1.88;88.60
23363;BME280;11853;48.080;11.960;2024-01-15T00:42:03;93437.81;;;1.86;88.06
23363;BME280;11853;48.080;11.960;2024-01-15T00:44:29;93435.59;;;1.91;88.04
23363;BME280;11853;48.080;11.960;2024-01-15T00:46:55;93442.78;;;1.89;88.61
23363;BME280;11853;48.080;11.960;2024-01-15T00:49:20;93435.88;;;1.88;88.47
23363;BME280;11853;48.080;11.960;2024-01-15T00:51:47;93447.69;;;1.83;88.60
23363;BME280;11853;48.080;11.960;2024-01-15T00:54:13;93450.19;;;1.84;88.34
23363;BME280;11853;48.080;11.960;2024-01-15T00:56:38;93454.31;;;1.87;88.76
23363;BME280;11853;48.080;11.960;2024-01-15T00:59:04;93459.28;;;1.90;88.43
23363;BME280;11853;48.080;11.960;2024-01-15T01:01:30;93451.81;;;1.85;88.51
23363;BME280;11853;48.080;11.960;2024-01-15T01:03:55;93455.97;;;1.78;89.88
23363;BME280;11853;48.080;11.960;2024-01-15T01:06:21;93450.84;;;1.76;89.91
23363;BME280;11853;48.080;11.960;2024-01-15T01:08:47;93451.00;;;1.75;90.63
23363;BME280;11853;48.080;11.960;2024-01-15T01:11:13;93444.81;;;1.76;91.16
23363;BME280;11853;48.080;11.960;2024-01-15T01:13:39;93455.25;;;1.76;91.54
23363;BME280;11853;48.080;11.960;2024-01-15T01:16:05;93455.13;;;1.77;91.63
23363;BME280;11853;48.080;11.960;2024-01-15T01:18:30;93448.78;;;1.80;91.78
23363;BME280;11853;48.080;11.960;2024-01-15T01:20:56;93465.88;;;1.84;91.25
23363;BME280;11853;48.080;11.960;2024-01-15T01:23:21;93458.31;;;1.91;91.64
23363;BME280;11853;48.080;11.960;2024-01-15T01:25:47;93465.22;;;1.92;91.19
23363;BME280;11853;48.080;11.960;2024-01-15T01:28:13;93467.81;;;1.92;91.54
23363;BME280;11853;48.080;11.960;2024-01-15T01:30:38;93469.84;;;1.88;91.30
23363;BME280;11853;48.080;11.960;2024-01-15T01:33:04;93476.59;;;1.91;90.40
23363;BME280;11853;48.080;11.960;2024-01-15T01:35:30;93484.59;;;1.89;89.22
23363;BME280;11853;48.080;11.960;2024-01-15T01:37:56;93477.97;;;1.85;89.07
23363;BME280;11853;48.080;11.960;2024-01-15T01:40:21;93479.34;;;1.79;87.49
23363;BME280;11853;48.080;11.960;2024-01-15T01:42:48;93482.09;;;1.78;86.81
23363;BME280;11853;48.080;11.960;2024-01-15T01:45:15;93483.47;;;1.82;86.71
23363;BME280;11853;48.080;11.960;2024-01-15T01:47:41;93473.84;;;1.83;86.84
23363;BME280;11853;48.080;11.960;2024-01-15T01:50:07;93483.75;;;1.79;84.76
23363;BME280;11853;48.080;11.960;2024-01-15T01:52:33;93482.66;;;1.82;85.14
23363;BME280;11853;48.080;11.960;2024-01-15T01:55:01;93477.16;;;1.94;84.72
23363;BME280;11853;48.080;11.960;2024-01-15T01:57:28;93478.25;;;1.82;83.88
23363;BME280;11853;48.080;11.960;2024-01-15T01:59:54;93484.56;;;1.79;82.84
23363;BME280;11853;48.080;11.960;2024-01-15T02:02:20;93480.41;;;1.67;82.63
23363;BME280;11853;48.080;11.960;2024-01-15T02:04:47;93482.75;;;1.61;83.05
23363;BME280;11853;48.080;11.960;2024-01-15T02:07:13;93487.28;;;1.58;83.30
23363;BME280;11853;48.080;11.960;2024-01-15T02:09:39;93488.06;;;1.49;82.63
23363;BME280;11853;48.080;11.960;2024-01-15T02:12:05;93483.78;;;1.48;83.40
23363;BME280;11853;48.080;11.960;2024-01-15T02:14:32;93487.09;;;1.50;82.70
23363;BME280;11853;48.080;11.960;2024-01-15T02:16:58;93495.84;;;1.40;82.22
23363;BME280;11853;48.080;11.960;2024-01-15T02:19:24;93490.06;;;1.36;83.32
23363;BME280;11853;48.080;11.960;2024-01-15T02:21:50;93491.03;;;1.35;82.68
23363;BME280;11853;48.080;11.960;2024-01-15T02:24:15;93500.00;;;1.42;82.17
23363;BME280;11853;48.080;11.960;2024-01-15T02:26:41;93497.25;;;1.44;81.69
23363;BME280;11853;48.080;11.960;2024-01-15T02:29:07;93489.69;;;1.41;82.00
23363;BME280;11853;48.080;11.960;2024-01-15T02:31:36;93482.41;;;1.44;81.66
23363;BME280;11853;48.080;11.960;2024-01-15T02:34:02;93491.88;;;1.45;80.98
23363;BME280;11853;48.080;11.960;2024-01-15T02:36:27;93495.75;;;1.51;81.11
23363;BME280;11853;48.080;11.960;2024-01-15T02:38:53;93497.63;;;1.39;81.37
23363;BME280;11853;48.080;11.960;2024-01-15T02:41:18;93512.25;;;1.51;81.47
23363;BME280;11853;48.080;11.960;2024-01-15T02:43:44;93513.88;;;1.43;81.74
23363;BME280;11853;48.080;11.960;2024-01-15T02:46:10;93516.94;;;1.48;81.04
23363;BME280;11853;48.080;11.960;2024-01-15T02:48:35;93501.81;;;1.51;81.21
23363;BME280;11853;48.080;11.960;2024-01-15T02:51:01;93515.66;;;1.42;81.52
23363;BME280;11853;48.080;11.960;2024-01-15T02:53:27;93521.59;;;1.44;81.47
23363;BME280;11853;48.080;11.960;2024-01-15T02:55:53;93521.06;;;1.50;81.55
23363;BME280;11853;48.080;11.960;2024-01-15T02:58:18;93519.69;;;1.46;81.66
23363;BME280;11853;48.080;11.960;2024-01-15T03:00:44;93520.09;;;1.51;81.17
23363;BME280;11853;48.080;11.960;2024-01-15T03:03:10;93524.91;;;1.46;81.15
23363;BME280;11853;48.080;11.960;2024-01-15T03:05:35;93531.81;;;1.57;80.34
23363;BME280;11853;48.080;11.960;2024-01-15T03:08:01;93532.50;;;1.49;80.87
23363;BME280;11853;48.080;11.960;2024-01-15T03:10:26;93526.13;;;1.42;80.68
23363;BME280;11853;48.080;11.960;2024-01-15T03:12:52;93532.03;;;1.44;80.78
23363;BME280;11853;48.080;11.960;2024-01-15T03:15:18;93518.44;;;1.41;81.09
23363;BME280;11853;48.080;11.960;2024-01-15T03:17:44;93508.19;;;1.28;81.19
23363;BME280;11853;48.080;11.960;2024-01-15T03:20:10;93501.06;;;1.30;81.27
23363;BME280;11853;48.080;11.960;2024-01-15T03:22:36;93501.06;;;1.30;81.92
23363;BME280;11853;48.080;11.960;2024-01-15T03:25:03;93511.94;;;1.35;81.30
23363;BME280;11853;48.080;11.960;2024-01-15T03:27:29;93508.88;;;1.30;81.59
23363;BME280;11853;48.080;11.960;2024-01-15T03:29:54;93504.91;;;1.35;81.42
23363;BME280;11853;48.080;11.960;2024-01-15T03:32:20;93506.97;;;1.32;80.88
23363;BME280;11853;48.080;11.960;2024-01-15T03:34:45;93511.41;;;1.41;81.55
23363;BME280;11853;48.080;11.960;2024-01-15T03:37:13;93498.38;;;1.20;81.06
23363;BME280;11853;48.080;11.960;2024-01-15T03:39:38;93519.44;;;1.28;81.75
23363;BME280;11853;48.080;11.960;2024-01-15T03:42:04;93515.66;;;1.42;81.49
23363;BME280;11853;48.080;11.960;2024-01-15T03:44:30;93503.41;;;1.33;81.18
23363;BME280;11853;48.080;11.960;2024-01-15T03:46:55;93513.28;;;1.29;81.41
23363;BME280;11853;48.080;11.960;2024-01-15T03:49:21;93513.06;;;1.42;81.61
23363;BME280;11853;48.080;11.960;2024-01-15T03:51:47;93511.41;;;1.41;80.56
23363;BME280;11853;48.080;11.960;2024-01-15T03:54:12;93520.78;;;1.44;81.05
23363;BME280;11853;48.080;11.960;2024-01-15T03:56:38;93512.34;;;1.40;80.55
23363;BME280;11853;48.080;11.960;2024-01-15T03:59:04;93508.91;;;1.40;80.87
23363;BME280;11853;48.080;11.960;2024-01-15T04:01:29;93511.22;;;1.33;80.24
23363;BME280;11853;48.080;11.960;2024-01-15T04:03:55;93514.03;;;1.41;81.12
23363;BME280;11853;48.080;11.960;2024-01-15T04:06:21;93511.22;;;1.33;80.43
23363;BME280;11853;48.080;11.960;2024-01-15T04:08:46;93517.16;;;1.35;80.73
23363;BME280;11853;48.080;11.960;2024-01-15T04:11:12;93513.84;;;1.33;80.56
23363;BME280;11853;48.080;11.960;2024-01-15T04:13:38;93503.56;;;1.41;79.87
23363;BME280;11853;48.080;11.960;2024-01-15T04:16:03;93504.00;;;1.46;80.14
23363;BME280;11853;48.080;11.960;2024-01-15T04:18:30;93505.38;;;1.50;80.03
23363;BME280;11853;48.080;11.960;2024-01-15T04:20:55;93500.97;;;1.51;79.31
23363;BME280;11853;48.080;11.960;2024-01-15T04:23:21;93508.16;;;1.49;79.15
23363;BME280;11853;48.080;11.960;2024-01-15T04:25:46;93517.19;;;1.45;79.74
23363;BME280;11853;48.080;11.960;2024-01-15T04:28:12;93520.63;;;1.45;79.93
23363;BME280;11853;48.080;11.960;2024-01-15T04:30:38;93504.41;;;1.51;79.25
23363;BME280;11853;48.080;11.960;2024-01-15T04:33:03;93511.16;;;1.54;79.38
23363;BME280;11853;48.080;11.960;2024-01-15T04:35:30;93511.06;;;1.65;79.25
23363;BME280;11853;48.080;11.960;2024-01-15T04:37:56;93515.47;;;1.55;79.21
23363;BME280;11853;48.080;11.960;2024-01-15T04:40:21;93521.34;;;1.57;79.55
23363;BME280;11853;48.080;11.960;2024-01-15T04:42:47;93515.75;;;1.62;79.17
23363;BME280;11853;48.080;11.960;2024-01-15T04:45:13;93526.59;;;1.57;78.94
23363;BME280;11853;48.080;11.960;2024-01-15T04:47:38;93529.59;;;1.52;78.36
23363;BME280;11853;48.080;11.960;2024-01-15T04:50:04;93516.84;;;1.59;79.34
23363;BME280;11853;48.080;11.960;2024-01-15T04:52:30;93521.09;;;1.60;79.02
23363;BME280;11853;48.080;11.960;2024-01-15T04:54:56;93526.09;;;1.63;78.52
23363;BME280;11853;48.080;11.960;2024-01-15T04:57:22;93520.41;;;1.58;78.04
23363;BME280;11853;48.080;11.960;2024-01-15T04:59:47;93527.16;;;1.61;78.61
23363;BME280;11853;48.080;11.960;2024-01-15T05:02:13;93523.59;;;1.71;78.55
23363;BME280;11853;48.080;11.960;2024-01-15T05:04:38;93513.69;;;1.65;78.08
23363;BME280;11853;48.080;11.960;2024-01-15T05:07:04;93512.75;;;1.76;78.56
23363;BME280;11853;48.080;11.960;2024-01-15T05:09:30;93508.78;;;1.72;78.07
23363;BME280;11853;48.080;11.960;2024-01-15T05:12:24;93508.63;;;1.73;77.58
23363;BME280;11853;48.080;11.960;2024-01-15T05:14:49;93501.78;;;1.82;77.66
23363;BME280;11853;48.080;11.960;2024-01-15T05:17:15;93508.78;;;1.72;77.58
23363;BME280;11853;48.080;11.960;2024-01-15T05:19:41;93512.06;;;1.74;77.71
23363;BME280;11853;48.080;11.960;2024-01-15T05:22:08;93507.09;;;1.71;78.17
23363;BME280;11853;48.080;11.960;2024-01-15T05:24:33;93503.78;;;1.69;78.48
23363;BME280;11853;48.080;11.960;2024-01-15T05:26:59;93512.75;;;1.76;78.58
23363;BME280;11853;48.080;11.960;2024-01-15T05:29:25;93505.47;;;1.79;77.73
23363;BME280;11853;48.080;11.960;2024-01-15T05:31:50;93517.59;;;1.80;78.26
23363;BME280;11853;48.080;11.960;2024-01-15T05:34:16;93502.31;;;1.86;78.05
23363;BME280;11853;48.080;11.960;2024-01-15T05:36:42;93498.63;;;1.88;78.05
23363;BME280;11853;48.080;11.960;2024-01-15T05:39:07;93507.44;;;1.87;77.61
23363;BME280;11853;48.080;11.960;2024-01-15T05:41:33;93497.81;;;1.97;77.26
23363;BME280;11853;48.080;11.960;2024-01-15T05:43:59;93511.03;;;2.06;76.97
23363;BME280;11853;48.080;11.960;2024-01-15T05:46:25;93519.41;;;1.99;77.53
23363;BME280;11853;48.080;11.960;2024-01-15T05:48:50;93513.38;;;1.99;77.52
23363;BME280;11853;48.080;11.960;2024-01-15T05:51:16;93510.47;;;1.92;78.14
23363;BME280;11853;48.080;11.960;2024-01-15T05:53:41;93502.47;;;1.94;77.64
23363;BME280;11853;48.080;11.960;2024-01-15T05:56:10;93502.22;;;1.97;78.05
23363;BME280;11853;48.080;11.960;2024-01-15T05:58:35;93494.09;;;1.90;77.90
23363;BME280;11853;48.080;11.960;2024-01-15T06:01:01;93509.78;;;2.00;77.99
23363;BME280;11853;48.080;11.960;2024-01-15T06:03:26;93518.34;;;2.02;77.80
23363;BME280;11853;48.080;11.960;2024-01-15T06:05:52;93505.53;;;1.99;77.89
23363;BME280;11853;48.080;11.960;2024-01-15T06:08:18;93508.53;;;1.94;78.10
23363;BME280;11853;48.080;11.960;2024-01-15T06:10:44;93502.06;;;1.89;78.18
23363;BME280;11853;48.080;11.960;2024-01-15T06:13:10;93499.97;;;1.73;79.14
23363;BME280;11853;48.080;11.960;2024-01-15T06:15:35;93511.69;;;1.78;79.15
23363;BME280;11853;48.080;11.960;2024-01-15T06:18:01;93499.53;;;1.68;78.97
23363;BME280;11853;48.080;11.960;2024-01-15T06:20:27;93507.94;;;1.71;79.12
23363;BME280;11853;48.080;11.960;2024-01-15T06:22:52;93508.34;;;1.67;78.36
23363;BME280;11853;48.080;11.960;2024-01-15T06:25:18;93507.09;;;1.71;79.05
23363;BME280;11853;48.080;11.960;2024-01-15T06:27:43;93514.00;;;1.72;78.48
23363;BME280;11853;48.080;11.960;2024-01-15T06:30:10;93507.09;;;1.71;77.94
23363;BME280;11853;48.080;11.960;2024-01-15T06:32:35;93517.28;;;1.64;77.36
23363;BME280;11853;48.080;11.960;2024-01-15T06:35:01;93519.19;;;1.62;78.97
23363;BME280;11853;48.080;11.960;2024-01-15T06:37:27;93516.72;;;1.61;78.61
23363;BME280;11853;48.080;11.960;2024-01-15T06:39:52;93518.91;;;1.65;78.41
23363;BME280;11853;48.080;11.960;2024-01-15T06:42:18;93510.91;;;1.57;78.45
23363;BME280;11853;48.080;11.960;2024-01-15T06:44:44;93516.28;;;1.55;78.73
23363;BME280;11853;48.080;11.960;2024-01-15T06:47:09;93503.91;;;1.57;78.59
23363;BME280;11853;48.080;11.960;2024-01-15T06:49:36;93503.06;;;1.57;77.69
23363;BME280;11853;48.080;11.960;2024-01-15T06:52:01;93516.72;;;1.61;78.03
23363;BME280;11853;48.080;11.960;2024-01-15T06:54:27;93515.56;;;1.53;78.61
23363;BME280;11853;48.080;11.960;2024-01-15T06:56:52;93516.72;;;1.61;78.82
23363;BME280;11853;48.080;11.960;2024-01-15T06:59:18;93517.53;;;1.61;78.11
23363;BME280;11853;48.080;11.960;2024-01-15T07:01:44;93515.47;;;1.65;78.99
23363;BME280;11853;48.080;11.960;2024-01-15T07:04:09;93513.94;;;1.62;77.83
23363;BME280;11853;48.080;11.960;2024-01-15T07:06:35;93520.16;;;1.61;78.38
23363;BME280;11853;48.080;11.960;2024-01-15T07:09:01;93518.09;;;1.65;78.62
23363;BME280;11853;48.080;11.960;2024-01-15T07:11:26;93516.19;;;1.67;78.14
23363;BME280;11853;48.080;11.960;2024-01-15T07:13:52;93518.34;;;1.62;78.69
23363;BME280;11853;48.080;11.960;2024-01-15T07:16:18;93510.25;;;1.65;78.88
23363;BME280;11853;48.080;11.960;2024-01-15T07:18:43;93516.19;;;1.67;78.33
23363;BME280;11853;48.080;11.960;2024-01-15T07:21:09;93512.03;;;1.64;78.57
23363;BME280;11853;48.080;11.960;2024-01-15T07:23:35;93510.53;;;1.62;78.22
23363;BME280;11853;48.080;11.960;2024-01-15T07:26:01;93515.31;;;1.56;78.77
23363;BME280;11853;48.080;11.960;2024-01-15T07:28:36;93514.50;;;1.66;82.96
23363;BME280;11853;48.080;11.960;2024-01-15T07:31:02;93495.09;;;2.28;99.07
23363;BME280;11853;48.080;11.960;2024-01-15T07:33:29;93490.41;;;2.51;91.83
23363;BME280;11853;48.080;11.960;2024-01-15T07:35:54;93493.59;;;2.45;86.58
23363;BME280;11853;48.080;11.960;2024-01-15T07:38:20;93487.13;;;2.39;85.37
23363;BME280;11853;48.080;11.960;2024-01-15T07:40:49;93498.41;;;2.40;81.09
23363;BME280;11853;48.080;11.960;2024-01-15T07:43:15;93500.34;;;2.28;79.70
23363;BME280;11853;48.080;11.960;2024-01-15T07:45:40;93493.19;;;2.20;79.79
23363;BME280;11853;48.080;11.960;2024-01-15T07:48:06;93503.06;;;2.07;78.35
23363;BME280;11853;48.080;11.960;2024-01-15T07:50:32;93508.03;;;2.10;78.53
23363;BME280;11853;48.080;11.960;2024-01-15T07:52:58;93508.03;;;2.10;78.86
23363;BME280;11853;48.080;11.960;2024-01-15T07:55:23;93491.50;;;2.10;78.70
23363;BME280;11853;48.080;11.960;2024-01-15T07:57:49;93506.91;;;2.03;78.36
23363;BME280;11853;48.080;11.960;2024-01-15T08:00:15;93500.84;;;2.02;79.04
23363;BME280;11853;48.080;11.960;2024-01-15T08:02:41;93502.78;;;2.00;78.45
23363;BME280;11853;48.080;11.960;2024-01-15T08:05:07;93501.94;;;2.00;78.90
23363;BME280;11853;48.080;11.960;2024-01-15T08:07:33;93509.91;;;1.89;78.97
23363;BME280;11853;48.080;11.960;2024-01-15T08:09:58;93502.19;;;1.87;79.57
23363;BME280;11853;48.080;11.960;2024-01-15T08:12:24;93496.00;;;1.88;78.91
23363;BME280;11853;48.080;11.960;2024-01-15T08:14:50;93489.94;;;1.88;79.08
23363;BME280;11853;48.080;11.960;2024-01-15T08:17:15;93480.47;;;1.96;81.83
23363;BME280;11853;48.080;11.960;2024-01-15T08:19:42;93475.41;;;2.05;83.31
23363;BME280;11853;48.080;11.960;2024-01-15T08:22:08;93472.22;;;2.11;82.54
23363;BME280;11853;48.080;11.960;2024-01-15T08:24:34;93468.63;;;2.12;81.13
23363;BME280;11853;48.080;11.960;2024-01-15T08:26:59;93470.84;;;2.16;80.23
23363;BME280;11853;48.080;11.960;2024-01-15T08:29:25;93457.09;;;2.05;79.29
23363;BME280;11853;48.080;11.960;2024-01-15T08:31:50;93476.09;;;2.07;79.42
23363;BME280;11853;48.080;11.960;2024-01-15T08:34:16;93466.47;;;2.07;79.71
23363;BME280;11853;48.080;11.960;2024-01-15T08:36:42;93473.31;;;2.08;79.49
23363;BME280;11853;48.080;11.960;2024-01-15T08:39:07;93470.88;;;2.07;79.56
23363;BME280;11853;48.080;11.960;2024-01-15T08:41:34;93478.72;;;2.07;79.09
23363;BME280;11853;48.080;11.960;2024-01-15T08:44:00;93480.50;;;2.06;79.31
23363;BME280;11853;48.080;11.960;2024-01-15T08:46:25;93479.97;;;2.12;79.59
23363;BME280;11853;48.080;11.960;2024-01-15T08:48:51;93479.38;;;2.09;79.25
23363;BME280;11853;48.080;11.960;2024-01-15T08:51:17;93480.63;;;2.05;79.35
23363;BME280;11853;48.080;11.960;2024-01-15T08:53:44;93479.66;;;2.06;79.33
23363;BME280;11853;48.080;11.960;2024-01-15T08:56:09;93495.06;;;1.99;79.68
23363;BME280;11853;48.080;11.960;2024-01-15T08:58:36;93488.31;;;1.96;79.36
23363;BME280;11853;48.080;11.960;2024-01-15T09:01:01;93484.59;;;1.99;79.66
23363;BME280;11853;48.080;11.960;2024-01-15T09:03:27;93488.44;;;1.85;78.74
23363;BME280;11853;48.080;11.960;2024-01-15T09:05:53;93494.22;;;1.89;79.92
23363;BME280;11853;48.080;11.960;2024-01-15T09:08:20;93495.72;;;1.91;79.35
23363;BME280;11853;48.080;11.960;2024-01-15T09:10:45;93491.47;;;1.90;80.68
23363;BME280;11853;48.080;11.960;2024-01-15T09:13:11;93490.66;;;1.99;80.63
23363;BME280;11853;48.080;11.960;2024-01-15T09:15:37;93493.13;;;1.91;80.38
23363;BME280;11853;48.080;11.960;2024-01-15T09:18:02;93481.28;;;1.97;80.64
23363;BME280;11853;48.080;11.960;2024-01-15T09:20:28;93483.38;;;2.03;79.65
23363;BME280;11853;48.080;11.960;2024-01-15T09:22:54;93488.75;;;2.01;78.93
23363;BME280;11853;48.080;11.960;2024-01-15T09:25:20;93489.84;;;2.09;78.94
23363;BME280;11853;48.080;11.960;2024-01-15T09:27:45;93491.94;;;2.15;78.02
23363;BME280;11853;48.080;11.960;2024-01-15T09:30:11;93498.25;;;2.12;78.57
23363;BME280;11853;48.080;11.960;2024-01-15T09:32:37;93491.50;;;2.19;78.53
23363;BME280;11853;48.080;11.960;2024-01-15T09:35:03;93484.22;;;2.23;78.13
23363;BME280;11853;48.080;11.960;2024-01-15T09:37:29;93500.34;;;2.28;77.98
23363;BME280;11853;48.080;11.960;2024-01-15T09:39:54;93485.47;;;2.19;77.99
23363;BME280;11853;48.080;11.960;2024-01-15T09:42:22;93495.66;;;2.22;78.16
23363;BME280;11853;48.080;11.960;2024-01-15T09:44:50;93481.47;;;2.24;78.91
23363;BME280;11853;48.080;11.960;2024-01-15T09:47:18;93490.84;;;2.27;78.69
23363;BME280;11853;48.080;11.960;2024-01-15T09:49:44;93479.25;;;2.20;78.07
23363;BME280;11853;48.080;11.960;2024-01-15T09:52:10;93481.31;;;2.26;79.24
23363;BME280;11853;48.080;11.960;2024-01-15T09:54:37;93490.41;;;2.32;79.32
23363;BME280;11853;48.080;11.960;2024-01-15T09:57:04;93482.59;;;2.41;79.47
23363;BME280;11853;48.080;11.960;2024-01-15T09:59:31;93477.06;;;2.44;79.45
23363;BME280;11853;48.080;11.960;2024-01-15T10:01:57;93473.22;;;2.39;79.55
23363;BME280;11853;48.080;11.960;2024-01-15T10:04:24;93470.31;;;2.42;79.13
23363;BME280;11853;48.080;11.960;2024-01-15T10:06:51;93466.44;;;2.46;79.51
23363;BME280;11853;48.080;11.960;2024-01-15T10:09:17;93469.63;;;2.50;79.49
23363;BME280;11853;48.080;11.960;2024-01-15T10:11:44;93467.28;;;2.56;79.06
23363;BME280;11853;48.080;11.960;2024-01-15T10:14:10;93467.28;;;2.56;78.53
23363;BME280;11853;48.080;11.960;2024-01-15T10:16:39;93465.19;;;2.60;78.54
23363;BME280;11853;48.080;11.960;2024-01-15T10:19:05;93464.25;;;2.61;78.12
23363;BME280;11853;48.080;11.960;2024-01-15T10:21:35;93461.78;;;2.69;78.69
23363;BME280;11853;48.080;11.960;2024-01-15T10:24:01;93458.72;;;2.74;78.83
23363;BME280;11853;48.080;11.960;2024-01-15T10:26:28;93455.53;;;2.89;78.14
23363;BME280;11853;48.080;11.960;2024-01-15T10:28:53;93457.56;;;2.96;77.52
23363;BME280;11853;48.080;11.960;2024-01-15T10:31:19;93453.47;;;2.83;76.13
23363;BME280;11853;48.080;11.960;2024-01-15T10:33:48;93453.84;;;2.88;77.18
23363;BME280;11853;48.080;11.960;2024-01-15T10:36:15;93454.84;;;2.87;76.97
23363;BME280;11853;48.080;11.960;2024-01-15T10:38:43;93458.69;;;2.93;77.00
23363;BME280;11853;48.080;11.960;2024-01-15T10:41:09;93459.38;;;2.85;76.86
23363;BME280;11853;48.080;11.960;2024-01-15T10:43:34;93446.72;;;2.81;77.07
23363;BME280;11853;48.080;11.960;2024-01-15T10:46:00;93447.38;;;2.83;77.80
23363;BME280;11853;48.080;11.960;2024-01-15T10:48:26;93444.94;;;2.81;77.74
23363;BME280;11853;48.080;11.960;2024-01-15T10:50:54;93437.47;;;2.86;77.53
23363;BME280;11853;48.080;11.960;2024-01-15T10:53:20;93443.66;;;2.95;77.21
23363;BME280;11853;48.080;11.960;2024-01-15T10:55:47;93435.81;;;2.95;77.35
23363;BME280;11853;48.080;11.960;2024-01-15T10:58:14;93428.22;;;2.92;77.20
23363;BME280;11853;48.080;11.960;2024-01-15T11:00:41;93427.94;;;2.95;77.46
23363;BME280;11853;48.080;11.960;2024-01-15T11:03:08;93426.69;;;2.99;77.94
23363;BME280;11853;48.080;11.960;2024-01-15T11:05:41;93417.56;;;3.03;77.63
23363;BME280;11853;48.080;11.960;2024-01-15T11:08:07;93434.50;;;3.09;76.95
23363;BME280;11853;48.080;11.960;2024-01-15T11:10:43;93430.19;;;3.17;77.81
23363;BME280;11853;48.080;11.960;2024-01-15T11:13:22;93416.38;;;3.25;76.79
23363;BME280;11853;48.080;11.960;2024-01-15T11:16:06;93408.53;;;3.25;76.48
23363;BME280;11853;48.080;11.960;2024-01-15T11:18:36;93416.06;;;3.38;77.22
23363;BME280;11853;48.080;11.960;2024-01-15T11:23:53;93400.56;;;3.45;76.30
23363;BME280;11853;48.080;11.960;2024-01-15T11:26:32;93395.44;;;3.53;75.35
23363;BME280;11853;48.080;11.960;2024-01-15T11:29:06;93376.88;;;3.64;74.25
23363;BME280;11853;48.080;11.960;2024-01-15T11:34:05;93370.69;;;4.01;73.09
23363;BME280;11853;48.080;11.960;2024-01-15T11:42:00;93363.63;;;4.19;71.75
23363;BME280;11853;48.080;11.960;2024-01-15T11:44:26;93367.56;;;4.23;70.85
23363;BME280;11853;48.080;11.960;2024-01-15T11:47:00;93375.81;;;4.28;71.24
23363;BME280;11853;48.080;11.960;2024-01-15T11:52:17;93384.78;;;4.18;70.49
23363;BME280;11853;48.080;11.960;2024-01-15T11:54:50;93389.34;;;3.98;70.05
23363;BME280;11853;48.080;11.960;2024-01-15T11:57:31;93387.00;;;3.95;71.15
23363;BME280;11853;48.080;11.960;2024-01-15T11:59:58;93387.00;;;3.95;71.17
23363;BME280;11853;48.080;11.960;2024-01-15T12:02:24;93385.66;;;3.91;71.84
23363;BME280;11853;48.080;11.960;2024-01-15T12:04:50;93382.34;;;3.89;71.65
23363;BME280;11853;48.080;11.960;2024-01-15T12:07:15;93368.88;;;3.83;72.29
23363;BME280;11853;48.080;11.960;2024-01-15T12:09:44;93377.03;;;3.80;71.83
23363;BME280;11853;48.080;11.960;2024-01-15T12:12:16;93367.81;;;3.76;72.18
23363;BME280;11853;48.080;11.960;2024-01-15T12:14:46;93365.63;;;3.72;72.34
23363;BME280;11853;48.080;11.960;2024-01-15T12:17:12;93371.47;;;3.66;73.54
23363;BME280;11853;48.080;11.960;2024-01-15T12:19:38;93360.97;;;3.66;74.17
23363;BME280;11853;48.080;11.960;2024-01-15T12:22:04;93350.50;;;3.66;73.41
23363;BME280;11853;48.080;11.960;2024-01-15T12:24:30;93351.84;;;3.70;73.77
23363;BME280;11853;48.080;11.960;2024-01-15T12:26:55;93352.16;;;3.67;73.81
23363;BME280;11853;48.080;11.960;2024-01-15T12:29:21;93352.47;;;3.64;74.31
23363;BME280;11853;48.080;11.960;2024-01-15T12:31:48;93353.88;;;3.58;75.06
23363;BME280;11853;48.080;11.960;2024-01-15T12:34:14;93353.56;;;3.61;74.49
23363;BME280;11853;48.080;11.960;2024-01-15T12:36:40;93353.56;;;3.61;74.91
23363;BME280;11853;48.080;11.960;2024-01-15T12:39:11;93354.69;;;3.58;74.72
23363;BME280;11853;48.080;11.960;2024-01-15T12:41:37;93343.38;;;3.58;74.77
23363;BME280;11853;48.080;11.960;2024-01-15T12:44:04;93343.38;;;3.58;75.75
23363;BME280;11853;48.080;11.960;2024-01-15T12:46:30;93337.84;;;3.61;75.32
23363;BME280;11853;48.080;11.960;2024-01-15T12:48:56;93323.22;;;3.58;75.14
23363;BME280;11853;48.080;11.960;2024-01-15T12:51:25;93317.16;;;3.58;75.48
23363;BME280;11853;48.080;11.960;2024-01-15T12:53:51;93322.72;;;3.55;75.22
23363;BME280;11853;48.080;11.960;2024-01-15T12:56:17;93316.50;;;3.56;74.43
23363;BME280;11853;48.080;11.960;2024-01-15T12:58:42;93297.66;;;3.43;75.52
23363;BME280;11853;48.080;11.960;2024-01-15T13:01:08;93303.72;;;3.43;74.68
23363;BME280;11853;48.080;11.960;2024-01-15T13:03:34;93292.50;;;3.51;75.36
23363;BME280;11853;48.080;11.960;2024-01-15T13:06:00;93295.94;;;3.51;75.02
23363;BME280;11853;48.080;11.960;2024-01-15T13:08:26;93289.88;;;3.51;75.41